Time;durP1;ratioP1;P1;durP2;ratioP2;P2;SDS_P1;SDS_P2;PMS_P1;PMS_P2;Temp;Humidity;BMP_temperature;BMP_pressure;BME280_temperature;BME280_humidity;BME280_pressure;Samples;Min_cycle;Max_cycle;Signal;HPM_P1;HPM_P2
2023/05/21 00:02:22;;;;;;;27.23;17.33;;;;;;;13.30;100.00;101391.13;4953113;28;20066;-67
2023/05/21 00:04:50;;;;;;;26.95;17.35;;;;;;;13.29;100.00;101389.44;4953433;28;20051;-68
2023/05/21 00:07:17;;;;;;;25.58;17.08;;;;;;;13.29;100.00;101389.44;4952259;28;20046;-67
2023/05/21 00:09:44;;;;;;;25.10;17.70;;;;;;;13.33;100.00;101396.19;4953008;28;20051;-66
2023/05/21 00:12:10;;;;;;;25.00;17.05;;;;;;;13.31;100.00;101398.19;4952552;28;20067;-66
2023/05/21 00:14:37;;;;;;;29.00;16.40;;;;;;;13.24;100.00;101391.75;4951997;28;20055;-67
2023/05/21 00:17:03;;;;;;;21.25;15.75;;;;;;;13.34;100.00;101386.25;4952733;28;20476;-67
2023/05/21 00:19:32;;;;;;;26.75;17.10;;;;;;;13.40;100.00;101385.63;4952780;28;20050;-66
2023/05/21 00:22:02;;;;;;;25.80;16.92;;;;;;;13.25;100.00;101382.69;4964489;28;20046;-68
2023/05/21 00:24:29;;;;;;;23.88;17.70;;;;;;;13.11;100.00;101378.75;4971169;28;20050;-67
2023/05/21 00:26:55;;;;;;;25.67;17.00;;;;;;;13.10;100.00;101381.59;4971796;28;20518;-66
2023/05/21 00:29:22;;;;;;;26.00;16.58;;;;;;;13.08;100.00;101380.94;4966054;28;20062;-66
2023/05/21 00:31:49;;;;;;;21.48;16.90;;;;;;;13.09;100.00;101369.13;4953051;29;20043;-67
2023/05/21 00:34:16;;;;;;;29.52;17.13;;;;;;;13.03;100.00;101367.09;4952668;29;20058;-67
2023/05/21 00:36:46;;;;;;;25.77;17.80;;;;;;;13.12;100.00;101371.50;4952344;28;20504;-67
2023/05/21 00:39:13;;;;;;;21.27;16.67;;;;;;;13.07;100.00;101366.59;4952561;28;20069;-67
2023/05/21 00:41:41;;;;;;;25.20;16.73;;;;;;;13.05;100.00;101373.16;4952341;29;20180;-66
2023/05/21 00:44:08;;;;;;;23.65;16.55;;;;;;;13.13;100.00;101378.59;4952272;28;20047;-66
2023/05/21 00:46:35;;;;;;;22.23;16.17;;;;;;;13.35;100.00;101372.63;4952240;29;20467;-68
2023/05/21 00:49:01;;;;;;;23.20;16.02;;;;;;;13.18;100.00;101370.88;4952216;29;20171;-67
2023/05/21 00:51:29;;;;;;;28.35;17.60;;;;;;;13.02;100.00;101370.78;4952283;29;20106;-67
2023/05/21 00:53:56;;;;;;;20.52;16.75;;;;;;;13.11;100.00;101367.97;4952246;28;20053;-67
2023/05/21 00:56:23;;;;;;;26.70;16.67;;;;;;;13.15;100.00;101363.13;4952165;29;20054;-67
2023/05/21 00:58:50;;;;;;;24.30;15.77;;;;;;;12.98;100.00;101364.88;4952331;28;20074;-67
2023/05/21 01:01:18;;;;;;;27.58;16.58;;;;;;;12.93;100.00;101356.41;4951759;29;20055;-67
2023/05/21 01:03:47;;;;;;;26.48;16.15;;;;;;;12.98;100.00;101359.50;4951550;28;20043;-68
2023/05/21 01:09:49;;;;;;;32.97;16.10;;;;;;;13.00;100.00;101348.53;4944487;28;20570;-67
2023/05/21 01:12:17;;;;;;;25.63;16.90;;;;;;;12.98;100.00;101348.72;4952154;28;20087;-67
2023/05/21 01:14:44;;;;;;;28.27;16.83;;;;;;;12.93;100.00;101342.94;4951675;28;20380;-67
2023/05/21 01:17:12;;;;;;;23.83;16.98;;;;;;;12.91;100.00;101347.69;4951518;28;20047;-68
2023/05/21 01:19:41;;;;;;;27.25;17.15;;;;;;;12.97;100.00;101349.72;4952180;28;20570;-68
2023/05/21 01:22:11;;;;;;;23.63;16.85;;;;;;;12.99;100.00;101347.72;4950981;28;20077;-68
2023/05/21 01:24:37;;;;;;;22.77;18.02;;;;;;;12.88;100.00;101348.00;4951589;29;20044;-68
2023/05/21 01:27:06;;;;;;;26.20;18.08;;;;;;;12.93;100.00;101350.19;4953609;28;20502;-68
2023/05/21 01:29:33;;;;;;;23.52;17.40;;;;;;;12.94;100.00;101338.41;4962992;28;20047;-68
2023/05/21 01:32:25;;;;;;;23.35;18.05;;;;;;;12.85;100.00;101342.91;4974772;28;20122;-66
2023/05/21 01:35:08;;;;;;;24.35;17.80;;;;;;;12.92;100.00;101340.44;4975049;28;20395;-67
2023/05/21 01:37:46;;;;;;;27.33;18.77;;;;;;;12.92;100.00;101340.44;4974523;28;20047;-67
2023/05/21 01:40:15;;;;;;;24.92;17.92;;;;;;;12.84;100.00;101336.69;4974811;28;20121;-67
2023/05/21 01:42:43;;;;;;;27.52;17.20;;;;;;;12.81;100.00;101342.41;4974682;28;20047;-66
2023/05/21 01:45:10;;;;;;;31.75;16.98;;;;;;;12.73;100.00;101334.25;4974480;28;20418;-67
2023/05/21 01:47:39;;;;;;;29.15;18.27;;;;;;;12.84;100.00;101341.25;4974794;28;20503;-67
2023/05/21 01:50:07;;;;;;;23.27;17.23;;;;;;;12.79;100.00;101333.63;4974559;28;20570;-67
2023/05/21 01:52:35;;;;;;;28.10;18.48;;;;;;;12.87;100.00;101335.53;4974727;28;20707;-66
2023/05/21 01:55:02;;;;;;;26.55;18.70;;;;;;;12.81;100.00;101344.25;4974792;28;20490;-67
2023/05/21 01:57:29;;;;;;;25.77;18.25;;;;;;;12.91;100.00;101336.06;4974109;28;20059;-67
2023/05/21 01:59:56;;;;;;;26.02;18.15;;;;;;;12.75;100.00;101328.72;4974393;28;20051;-67
2023/05/21 02:02:23;;;;;;;36.00;18.58;;;;;;;12.68;100.00;101324.97;4974508;28;20124;-65
2023/05/21 02:04:50;;;;;;;28.00;18.67;;;;;;;12.71;100.00;101330.88;4974834;28;20442;-67
2023/05/21 02:07:17;;;;;;;33.35;19.10;;;;;;;12.64;100.00;101327.97;4974453;28;20055;-67
2023/05/21 02:09:43;;;;;;;33.80;18.55;;;;;;;12.62;100.00;101326.44;4974359;28;20050;-67
2023/05/21 02:12:10;;;;;;;24.05;17.95;;;;;;;12.69;100.00;101327.47;4974363;28;20050;-67
2023/05/21 02:14:37;;;;;;;33.20;19.05;;;;;;;12.66;100.00;101327.81;4973493;28;20125;-67
2023/05/21 02:17:04;;;;;;;27.15;19.17;;;;;;;12.59;100.00;101327.59;4973781;28;20047;-67
2023/05/21 02:19:31;;;;;;;28.52;19.85;;;;;;;12.59;100.00;101321.34;4974022;28;20087;-67
2023/05/21 02:21:57;;;;;;;30.25;19.45;;;;;;;12.65;100.00;101315.34;4973456;28;20054;-67
2023/05/21 02:24:24;;;;;;;29.75;19.27;;;;;;;12.51;100.00;101321.31;4973731;28;20109;-66
2023/05/21 02:26:51;;;;;;;29.98;19.73;;;;;;;12.54;100.00;101319.16;4974121;28;20046;-67
2023/05/21 02:29:18;;;;;;;32.55;20.88;;;;;;;12.55;100.00;101311.91;4968596;28;20074;-68
2023/05/21 02:31:44;;;;;;;33.47;20.80;;;;;;;12.54;100.00;101312.94;4954378;28;20047;-66
2023/05/21 02:34:11;;;;;;;28.38;20.25;;;;;;;12.59;100.00;101324.03;4954298;28;20055;-67
2023/05/21 02:36:40;;;;;;;27.77;19.77;;;;;;;12.37;100.00;101311.97;4954394;28;20134;-67
2023/05/21 02:39:07;;;;;;;24.38;19.13;;;;;;;12.37;100.00;101317.34;4954524;28;20039;-67
2023/05/21 02:41:33;;;;;;;31.45;20.27;;;;;;;12.32;100.00;101317.00;4953525;29;20051;-67
2023/05/21 02:44:00;;;;;;;30.77;20.27;;;;;;;12.37;100.00;101312.81;4954002;29;20047;-67
2023/05/21 02:46:26;;;;;;;29.17;21.88;;;;;;;12.27;100.00;101306.69;4953966;28;20067;-68
2023/05/21 02:48:53;;;;;;;31.40;21.25;;;;;;;12.25;100.00;101314.09;4954332;28;20098;-67
2023/05/21 02:51:19;;;;;;;38.35;21.65;;;;;;;12.38;100.00;101308.28;4954092;28;20465;-67
2023/05/21 02:53:47;;;;;;;31.58;21.30;;;;;;;12.33;100.00;101305.22;4953646;28;20035;-67
2023/05/21 02:56:13;;;;;;;30.42;23.13;;;;;;;12.30;100.00;101308.22;4953931;29;20117;-67
2023/05/21 02:58:40;;;;;;;31.40;21.80;;;;;;;12.49;100.00;101299.13;4953757;29;20043;-67
2023/05/21 03:01:07;;;;;;;35.95;24.38;;;;;;;12.36;100.00;101304.91;4953483;29;20047;-67
2023/05/21 03:03:33;;;;;;;33.97;23.48;;;;;;;12.38;100.00;101306.44;4953462;28;20507;-67
2023/05/21 03:06:00;;;;;;;37.15;24.63;;;;;;;12.38;100.00;101303.75;4953656;28;20095;-66
2023/05/21 03:08:27;;;;;;;33.83;24.35;;;;;;;12.38;100.00;101302.88;4954521;28;20067;-67
2023/05/21 03:10:54;;;;;;;37.60;24.35;;;;;;;12.25;100.00;101302.50;4935112;29;20467;-67
2023/05/21 03:13:21;;;;;;;37.13;24.48;;;;;;;12.30;100.00;101298.31;4934385;29;20546;-67
2023/05/21 03:15:47;;;;;;;35.00;23.52;;;;;;;12.31;100.00;101296.44;4934567;29;20075;-68
2023/05/21 03:18:14;;;;;;;32.88;23.45;;;;;;;12.39;100.00;101300.06;4934449;29;20048;-67
2023/05/21 03:20:43;;;;;;;38.08;24.55;;;;;;;12.41;100.00;101294.50;4934117;29;20058;-67
2023/05/21 03:23:11;;;;;;;42.60;23.83;;;;;;;12.35;100.00;101296.00;4934129;29;20047;-67
2023/05/21 03:25:41;;;;;;;33.70;24.70;;;;;;;12.36;100.00;101303.06;4934445;29;20055;-68
2023/05/21 03:28:10;;;;;;;40.63;25.17;;;;;;;12.28;100.00;101296.75;4934629;29;20067;-67
2023/05/21 03:30:37;;;;;;;38.67;25.00;;;;;;;12.33;100.00;101300.69;4949793;28;20074;-67
2023/05/21 03:33:03;;;;;;;39.35;25.98;;;;;;;12.37;100.00;101302.03;4952820;28;20074;-67
2023/05/21 03:35:30;;;;;;;37.45;25.90;;;;;;;12.44;100.00;101302.25;4953607;28;20051;-66
2023/05/21 03:37:57;;;;;;;37.28;25.77;;;;;;;12.58;100.00;101298.16;4954079;28;20126;-67
2023/05/21 03:40:23;;;;;;;39.60;26.55;;;;;;;12.41;100.00;101289.97;4953544;28;20043;-67
2023/05/21 03:42:50;;;;;;;39.33;26.33;;;;;;;12.40;100.00;101301.75;4953089;28;20047;-66
2023/05/21 03:45:16;;;;;;;34.42;26.52;;;;;;;12.36;100.00;101302.22;4952941;28;20043;-67
2023/05/21 03:47:43;;;;;;;36.35;26.67;;;;;;;12.44;100.00;101301.41;4951402;28;20091;-66
2023/05/21 03:50:10;;;;;;;42.72;26.60;;;;;;;12.49;100.00;101299.13;4952302;28;20134;-67
2023/05/21 03:52:36;;;;;;;38.85;26.83;;;;;;;12.49;100.00;101299.13;4952799;28;20054;-65
2023/05/21 03:55:03;;;;;;;40.60;26.33;;;;;;;12.56;100.00;101306.41;4952585;28;20094;-67
2023/05/21 03:57:30;;;;;;;42.72;27.38;;;;;;;12.49;100.00;101307.19;4953404;28;20055;-68
2023/05/21 03:59:57;;;;;;;36.70;26.30;;;;;;;12.63;100.00;101299.38;4968167;28;20047;-68
2023/05/21 04:02:25;;;;;;;36.55;25.35;;;;;;;12.77;100.00;101308.72;4972284;28;20494;-68
2023/05/21 04:04:54;;;;;;;38.30;25.92;;;;;;;12.60;100.00;101307.75;4972326;28;20553;-67
2023/05/21 04:07:21;;;;;;;36.17;26.25;;;;;;;12.84;100.00;101308.94;4972072;28;20043;-67
2023/05/21 04:09:48;;;;;;;38.25;26.50;;;;;;;12.82;100.00;101311.75;4972125;28;20117;-67
2023/05/21 04:12:16;;;;;;;37.22;26.05;;;;;;;12.85;100.00;101305.22;4971713;28;20097;-67
2023/05/21 04:14:43;;;;;;;34.03;27.13;;;;;;;12.86;100.00;101307.75;4971335;28;20042;-66
2023/05/21 04:17:11;;;;;;;32.60;25.92;;;;;;;12.76;100.00;101308.88;4971918;28;20117;-68
2023/05/21 04:19:38;;;;;;;36.10;26.77;;;;;;;12.95;100.00;101311.34;4971890;28;20074;-67
2023/05/21 04:22:05;;;;;;;35.85;25.88;;;;;;;12.87;100.00;101309.44;4971635;28;20418;-67
2023/05/21 04:24:31;;;;;;;35.55;26.40;;;;;;;12.81;100.00;101323.56;4971044;28;20495;-66
2023/05/21 04:27:00;;;;;;;39.17;26.55;;;;;;;12.85;100.00;101319.53;4971327;28;20046;-68
2023/05/21 04:29:28;;;;;;;36.50;26.23;;;;;;;12.80;100.00;101319.19;4965141;28;20078;-66
2023/05/21 04:31:55;;;;;;;36.60;26.45;;;;;;;12.88;100.00;101321.91;4952168;28;20407;-66
2023/05/21 04:34:21;;;;;;;37.70;26.75;;;;;;;12.96;100.00;101318.41;4952231;28;20051;-67
2023/05/21 04:36:48;;;;;;;39.20;27.10;;;;;;;13.07;100.00;101319.97;4952435;28;20102;-66
2023/05/21 04:39:15;;;;;;;42.15;26.75;;;;;;;12.82;100.00;101325.22;4951494;28;20051;-67
2023/05/21 04:41:43;;;;;;;35.92;26.75;;;;;;;13.02;100.00;101322.31;4950076;28;20035;-67
2023/05/21 04:44:13;;;;;;;35.25;27.42;;;;;;;13.05;100.00;101324.69;4946561;28;20047;-67
2023/05/21 04:46:40;;;;;;;34.67;26.65;;;;;;;13.14;100.00;101326.38;4950605;28;20055;-67
2023/05/21 04:49:09;;;;;;;34.90;25.80;;;;;;;13.01;100.00;101326.84;4940353;28;20053;-67
2023/05/21 04:51:36;;;;;;;33.42;26.42;;;;;;;13.28;100.00;101322.22;4949648;28;20467;-66
2023/05/21 04:54:03;;;;;;;35.40;27.63;;;;;;;13.24;100.00;101321.72;4950302;28;20567;-66
2023/05/21 04:56:30;;;;;;;34.47;26.42;;;;;;;13.20;100.00;101317.66;4951737;28;20070;-67
2023/05/21 04:58:57;;;;;;;33.38;25.42;;;;;;;13.22;100.00;101321.03;4951500;28;20051;-67
2023/05/21 05:01:25;;;;;;;33.85;26.48;;;;;;;13.32;100.00;101324.44;4952250;28;20053;-67
2023/05/21 05:03:52;;;;;;;32.17;26.08;;;;;;;13.43;100.00;101317.06;4955129;28;20070;-67
2023/05/21 05:06:20;;;;;;;41.00;26.65;;;;;;;13.49;100.00;101319.09;4954365;28;20062;-67
2023/05/21 05:08:46;;;;;;;38.47;26.40;;;;;;;13.44;100.00;101322.28;4955054;28;20047;-66
2023/05/21 05:11:13;;;;;;;37.53;26.35;;;;;;;13.58;100.00;101329.72;4952961;28;20459;-67
2023/05/21 05:13:43;;;;;;;40.35;26.02;;;;;;;13.83;100.00;101325.25;4954052;28;20052;-66
2023/05/21 05:16:11;;;;;;;34.97;27.15;;;;;;;13.72;100.00;101328.22;4955853;28;20058;-67
2023/05/21 05:18:38;;;;;;;32.30;25.95;;;;;;;13.98;100.00;101321.91;4955107;28;20047;-68
2023/05/21 05:21:04;;;;;;;38.70;26.80;;;;;;;13.90;100.00;101317.31;4952790;28;20054;-66
2023/05/21 05:23:31;;;;;;;32.92;25.52;;;;;;;13.95;100.00;101322.25;4954452;28;20102;-67
2023/05/21 05:25:58;;;;;;;42.80;25.38;;;;;;;13.82;100.00;101320.88;4953471;28;20130;-67
2023/05/21 05:28:24;;;;;;;40.05;26.88;;;;;;;13.86;100.00;101323.22;4947362;28;20051;-67
2023/05/21 05:30:51;;;;;;;37.80;25.15;;;;;;;14.05;100.00;101328.31;4959315;28;20047;-68
2023/05/21 05:33:18;;;;;;;34.35;25.60;;;;;;;14.11;100.00;101324.06;4954302;28;20062;-67
2023/05/21 05:35:44;;;;;;;31.35;25.42;;;;;;;14.19;100.00;101319.53;4954167;28;20102;-67
2023/05/21 05:38:12;;;;;;;33.72;25.33;;;;;;;14.21;100.00;101325.59;4955604;28;20502;-68
2023/05/21 05:40:38;;;;;;;36.03;25.20;;;;;;;14.34;100.00;101318.84;4954409;28;20419;-67
2023/05/21 05:43:05;;;;;;;38.40;25.95;;;;;;;14.24;100.00;101319.03;4954684;28;20051;-67
2023/05/21 05:45:32;;;;;;;35.92;26.25;;;;;;;14.24;100.00;101319.84;4954601;28;20051;-67
2023/05/21 05:47:58;;;;;;;34.13;25.38;;;;;;;14.25;100.00;101326.97;4954066;28;20451;-68
2023/05/21 05:50:26;;;;;;;36.15;24.85;;;;;;;14.46;100.00;101318.34;4954965;28;20051;-67
2023/05/21 05:52:52;;;;;;;37.05;25.13;;;;;;;14.31;100.00;101322.72;4953994;28;20058;-67
2023/05/21 05:55:20;;;;;;;38.22;23.67;;;;;;;14.48;100.00;101315.44;4955148;28;20467;-67
2023/05/21 05:57:47;;;;;;;31.05;24.67;;;;;;;14.59;100.00;101327.75;4954263;28;20102;-67
2023/05/21 06:00:14;;;;;;;31.70;23.80;;;;;;;14.47;100.00;101324.56;4955167;28;20047;-68
2023/05/21 06:02:41;;;;;;;34.65;24.23;;;;;;;14.64;100.00;101318.13;4953808;28;20067;-68
2023/05/21 06:05:08;;;;;;;32.65;24.83;;;;;;;14.55;100.00;101321.84;4954494;28;20058;-67
2023/05/21 06:07:37;;;;;;;31.77;22.23;;;;;;;14.51;100.00;101321.34;4954959;29;20447;-67
2023/05/21 06:10:07;;;;;;;28.48;22.55;;;;;;;14.56;100.00;101312.72;4952330;29;20118;-67
2023/05/21 06:12:34;;;;;;;29.25;22.55;;;;;;;14.54;100.00;101317.47;4953836;28;20054;-67
2023/05/21 06:15:01;;;;;;;28.88;22.83;;;;;;;14.57;100.00;101309.03;4954685;29;20175;-67
2023/05/21 06:17:27;;;;;;;31.70;22.58;;;;;;;14.70;100.00;101308.47;4954042;29;20051;-67
2023/05/21 06:19:54;;;;;;;33.30;23.08;;;;;;;14.96;100.00;101316.38;4954104;29;20487;-69
2023/05/21 06:22:21;;;;;;;27.10;21.80;;;;;;;14.97;100.00;101316.19;4953168;29;20055;-66
2023/05/21 06:24:50;;;;;;;30.48;21.65;;;;;;;14.97;100.00;101309.94;4953824;29;20066;-67
2023/05/21 06:27:17;;;;;;;30.38;21.77;;;;;;;15.15;100.00;101318.63;4954191;29;20106;-66
2023/05/21 06:29:43;;;;;;;27.15;21.38;;;;;;;15.05;100.00;101314.47;4945499;29;20095;-67
2023/05/21 06:32:10;;;;;;;31.55;23.95;;;;;;;15.20;100.00;101308.16;4934883;29;20043;-67
2023/05/21 06:34:36;;;;;;;35.67;22.33;;;;;;;15.25;100.00;101313.00;4934825;29;20060;-67
2023/05/21 06:37:03;;;;;;;35.05;21.50;;;;;;;15.33;100.00;101310.28;4933701;29;20095;-67
2023/05/21 06:39:30;;;;;;;29.65;22.48;;;;;;;15.35;100.00;101312.81;4935186;29;20511;-67
2023/05/21 06:41:56;;;;;;;28.77;20.65;;;;;;;15.47;100.00;101306.00;4934424;29;20114;-67
2023/05/21 06:44:23;;;;;;;25.35;20.50;;;;;;;15.51;100.00;101307.31;4935514;29;20047;-67
2023/05/21 06:46:49;;;;;;;30.13;21.48;;;;;;;15.62;100.00;101308.75;4953624;28;20043;-68
2023/05/21 06:49:16;;;;;;;29.40;20.95;;;;;;;15.65;100.00;101308.44;4954402;28;20077;-67
2023/05/21 06:51:42;;;;;;;27.48;20.23;;;;;;;15.62;100.00;101309.59;4953290;28;20051;-68
2023/05/21 06:54:09;;;;;;;30.23;20.70;;;;;;;15.81;100.00;101305.63;4954546;28;20076;-68
2023/05/21 06:56:36;;;;;;;29.08;20.73;;;;;;;15.83;100.00;101313.56;4954298;28;20096;-67
2023/05/21 06:59:02;;;;;;;25.83;19.30;;;;;;;16.13;100.00;101307.22;4953980;28;20131;-68
2023/05/21 07:01:29;;;;;;;25.73;19.42;;;;;;;16.42;100.00;101308.28;4953584;28;20463;-67
2023/05/21 07:03:56;;;;;;;30.27;19.73;;;;;;;16.11;100.00;101306.53;4952689;28;20062;-68
2023/05/21 07:06:22;;;;;;;26.75;19.80;;;;;;;16.59;100.00;101309.84;4953720;28;20082;-68
2023/05/21 07:08:49;;;;;;;27.73;18.55;;;;;;;16.81;100.00;101305.34;4953967;28;20063;-68
2023/05/21 07:11:15;;;;;;;23.83;17.98;;;;;;;16.90;100.00;101311.53;4953584;28;20039;-68
2023/05/21 07:13:42;;;;;;;27.55;17.67;;;;;;;16.97;100.00;101306.19;4952732;28;20499;-68
2023/05/21 07:16:08;;;;;;;23.50;17.60;;;;;;;16.93;100.00;101303.03;4953580;28;20047;-68
2023/05/21 07:18:36;;;;;;;24.02;17.88;;;;;;;16.85;100.00;101309.41;4953559;28;20055;-67
2023/05/21 07:21:03;;;;;;;25.08;17.35;;;;;;;17.11;100.00;101300.75;4953264;28;20102;-68
2023/05/21 07:23:29;;;;;;;21.55;17.10;;;;;;;17.50;100.00;101304.16;4952842;28;20337;-67
2023/05/21 07:25:56;;;;;;;21.30;16.08;;;;;;;17.93;100.00;101302.31;4953153;28;20051;-68
2023/05/21 07:28:22;;;;;;;19.73;15.88;;;;;;;18.25;100.00;101306.38;4953430;28;20479;-68
2023/05/21 07:30:49;;;;;;;21.85;14.85;;;;;;;18.44;100.00;101299.38;4960456;28;20495;-68
2023/05/21 07:33:16;;;;;;;24.33;16.02;;;;;;;18.62;100.00;101309.78;4971680;28;20047;-68
2023/05/21 07:35:42;;;;;;;23.77;16.48;;;;;;;18.82;100.00;101303.59;4954469;28;20450;-68
2023/05/21 07:38:09;;;;;;;22.35;14.85;;;;;;;19.37;100.00;101313.50;4972915;28;20043;-68
2023/05/21 07:40:35;;;;;;;25.55;14.65;;;;;;;19.55;100.00;101303.91;4972282;28;20463;-68
2023/05/21 07:43:02;;;;;;;17.45;13.15;;;;;;;19.92;100.00;101305.28;4972155;28;20069;-66
2023/05/21 07:45:28;;;;;;;19.58;13.95;;;;;;;19.83;100.00;101301.94;4972869;28;20046;-67
2023/05/21 07:47:55;;;;;;;17.80;13.63;;;;;;;19.58;100.00;101300.78;4972103;28;20046;-68
2023/05/21 07:50:22;;;;;;;21.40;13.75;;;;;;;19.96;100.00;101306.53;4972516;28;20549;-67
2023/05/21 07:52:48;;;;;;;18.63;12.88;;;;;;;19.76;100.00;101294.78;4973578;28;20521;-71
2023/05/21 07:55:15;;;;;;;15.18;12.30;;;;;;;19.75;100.00;101302.13;4972659;28;20070;-69
2023/05/21 07:57:41;;;;;;;18.02;13.57;;;;;;;20.10;100.00;101286.41;4971806;28;20422;-70
2023/05/21 08:00:09;;;;;;;19.42;13.40;;;;;;;20.37;98.73;101289.13;4972326;28;20078;-69
2023/05/21 08:02:35;;;;;;;16.35;12.90;;;;;;;20.36;97.57;101284.75;4971994;28;20558;-68
2023/05/21 08:05:02;;;;;;;16.60;12.93;;;;;;;20.52;93.84;101288.94;4973625;28;20462;-69
2023/05/21 08:07:30;;;;;;;20.77;12.48;;;;;;;20.32;94.17;101289.78;4972020;28;20050;-69
2023/05/21 08:09:57;;;;;;;16.75;12.57;;;;;;;20.63;90.27;101291.03;4972317;28;20569;-69
2023/05/21 08:12:24;;;;;;;18.77;13.15;;;;;;;20.25;94.55;101282.63;4972740;28;20097;-70
2023/05/21 08:14:50;;;;;;;18.25;11.85;;;;;;;20.58;92.79;101288.09;4972322;28;20466;-70
2023/05/21 08:17:17;;;;;;;18.95;12.20;;;;;;;20.47;93.72;101291.47;4973159;28;20055;-71
2023/05/21 08:19:43;;;;;;;17.15;11.77;;;;;;;20.71;89.46;101287.22;4972839;28;20517;-70
2023/05/21 08:22:10;;;;;;;20.40;11.90;;;;;;;20.96;86.76;101284.63;4972821;28;20392;-69
2023/05/21 08:24:37;;;;;;;20.73;11.98;;;;;;;21.53;81.04;101286.47;4973009;28;20122;-69
2023/05/21 08:27:04;;;;;;;13.50;11.77;;;;;;;21.89;78.89;101278.69;4970816;28;20097;-68
2023/05/21 08:29:31;;;;;;;21.67;12.63;;;;;;;21.24;80.38;101279.69;4965329;28;20043;-68
2023/05/21 08:31:58;;;;;;;20.48;11.25;;;;;;;21.56;78.58;101285.19;4952928;28;20075;-69
2023/05/21 08:34:25;;;;;;;18.52;11.20;;;;;;;22.04;75.78;101276.47;4951804;28;20423;-69
2023/05/21 08:36:52;;;;;;;15.88;11.30;;;;;;;22.45;72.98;101278.59;4952688;28;20106;-69
2023/05/21 08:39:19;;;;;;;14.90;10.38;;;;;;;21.70;73.90;101275.88;4952786;28;20047;-68
2023/05/21 08:41:50;;;;;;;18.92;10.88;;;;;;;22.18;70.78;101283.47;4952670;29;20105;-69
2023/05/21 08:44:20;;;;;;;18.60;10.50;;;;;;;22.83;68.86;101276.75;4951909;28;20058;-69
2023/05/21 08:46:50;;;;;;;16.13;9.88;;;;;;;23.10;68.05;101278.09;4954001;29;20446;-68
2023/05/21 08:49:21;;;;;;;15.75;10.20;;;;;;;23.25;64.32;101280.44;4953265;28;20047;-68
2023/05/21 08:51:52;;;;;;;17.63;10.38;;;;;;;23.14;64.87;101279.34;4952895;28;20043;-68
2023/05/21 08:54:18;;;;;;;25.10;9.93;;;;;;;22.40;66.77;101272.16;4951600;29;20495;-68
2023/05/21 08:56:48;;;;;;;17.42;10.27;;;;;;;22.14;68.28;101274.06;4950018;29;20098;-68
2023/05/21 08:59:15;;;;;;;18.42;10.25;;;;;;;22.28;68.64;101274.78;4953170;29;20048;-67
2023/05/21 09:01:44;;;;;;;14.70;10.48;;;;;;;21.63;70.58;101272.31;4952888;28;20106;-67
2023/05/21 09:04:14;;;;;;;15.25;9.43;;;;;;;22.09;70.22;101272.00;4934823;28;20047;-67
2023/05/21 09:06:47;;;;;;;12.80;9.30;;;;;;;22.00;70.18;101264.31;4953004;28;20471;-67
2023/05/21 09:09:23;;;;;;;16.10;9.40;;;;;;;22.54;69.68;101276.44;4951872;28;20419;-67
2023/05/21 09:11:50;;;;;;;11.40;9.20;;;;;;;23.14;65.09;101273.88;4952210;28;20066;-68
2023/05/21 09:14:18;;;;;;;16.15;9.88;;;;;;;22.67;66.41;101270.84;4953733;29;20048;-69
2023/05/21 09:16:47;;;;;;;16.42;9.57;;;;;;;22.87;64.35;101269.75;4951416;28;20070;-69
2023/05/21 09:19:14;;;;;;;14.35;8.70;;;;;;;23.06;63.49;101278.81;4953486;28;20070;-68
2023/05/21 09:21:40;;;;;;;14.43;9.65;;;;;;;22.54;65.13;101273.72;4954528;28;20055;-69
2023/05/21 09:24:09;;;;;;;11.20;8.77;;;;;;;23.00;64.74;101272.34;4954435;28;20081;-68
2023/05/21 09:26:36;;;;;;;18.60;8.52;;;;;;;22.94;64.55;101271.34;4940250;29;20051;-68
2023/05/21 09:29:02;;;;;;;17.05;8.63;;;;;;;23.40;62.24;101263.59;4958234;28;20043;-69
2023/05/21 09:31:29;;;;;;;12.68;8.70;;;;;;;23.85;59.35;101255.78;4970260;28;20070;-69
2023/05/21 09:33:56;;;;;;;11.98;7.57;;;;;;;24.37;57.19;101264.16;4972062;28;20146;-69
2023/05/21 09:36:23;;;;;;;12.73;8.30;;;;;;;23.87;57.50;101255.53;4973908;28;20051;-69
2023/05/21 09:38:53;;;;;;;9.07;7.25;;;;;;;24.11;57.96;101254.50;4975537;28;20050;-69
2023/05/21 09:41:29;;;;;;;15.32;7.88;;;;;;;24.58;56.82;101250.94;4973144;28;20101;-69
2023/05/21 09:44:00;;;;;;;10.90;7.25;;;;;;;25.10;53.13;101245.47;4971780;28;20047;-69
2023/05/21 09:46:26;;;;;;;15.10;7.25;;;;;;;25.22;53.14;101248.13;4973871;28;20075;-69
2023/05/21 09:48:53;;;;;;;12.18;7.10;;;;;;;24.91;52.96;101242.84;4977920;28;20475;-69
2023/05/21 09:51:20;;;;;;;11.55;7.07;;;;;;;24.79;52.82;101235.75;4977899;28;20054;-68
2023/05/21 09:53:54;;;;;;;16.42;7.20;;;;;;;24.16;54.55;101246.41;4978288;28;20057;-68
2023/05/21 09:56:23;;;;;;;12.57;7.18;;;;;;;24.58;53.52;101249.03;4978447;28;20106;-68
2023/05/21 09:59:00;;;;;;;16.33;7.72;;;;;;;24.67;53.42;101242.06;4978670;28;20119;-68
2023/05/21 10:01:30;;;;;;;14.13;6.88;;;;;;;24.29;53.33;101239.81;4975842;28;20046;-68
2023/05/21 10:03:59;;;;;;;16.35;7.15;;;;;;;25.08;51.94;101242.94;4973451;28;20053;-69
2023/05/21 10:06:28;;;;;;;13.77;7.20;;;;;;;25.58;50.22;101235.88;4974084;28;20059;-69
2023/05/21 10:08:56;;;;;;;8.70;6.40;;;;;;;25.88;48.55;101223.78;4975191;28;20055;-69
2023/05/21 10:11:25;;;;;;;14.95;6.40;;;;;;;25.60;49.07;101226.34;4973678;28;20059;-69
2023/05/21 10:14:15;;;;;;;13.07;6.57;;;;;;;25.94;47.84;101218.09;4973655;28;20054;-69
2023/05/21 10:16:42;;;;;;;18.40;7.03;;;;;;;26.00;46.83;101216.28;4974188;28;20549;-72
2023/05/21 10:19:10;;;;;;;13.00;6.07;;;;;;;25.96;47.40;101213.19;4973483;28;20046;-70
2023/05/21 10:21:38;;;;;;;16.02;6.15;;;;;;;26.93;45.05;101208.19;4973356;28;20051;-70
2023/05/21 10:24:07;;;;;;;7.10;5.18;;;;;;;27.26;43.53;101201.66;4972559;28;20538;-67
2023/05/21 10:26:35;;;;;;;14.57;5.22;;;;;;;26.65;43.90;101206.47;4973388;28;20039;-71
2023/05/21 10:29:02;;;;;;;7.18;5.32;;;;;;;26.25;44.22;101196.59;4964904;28;20054;-69
2023/05/21 10:31:28;;;;;;;14.85;5.30;;;;;;;26.06;43.19;101190.50;4955520;29;20047;-68
2023/05/21 10:33:55;;;;;;;6.97;4.70;;;;;;;26.17;43.13;101199.72;4954618;28;20225;-65
2023/05/21 10:36:30;;;;;;;13.27;4.63;;;;;;;26.68;42.52;101195.75;4955548;28;20057;-65
2023/05/21 10:38:58;;;;;;;11.50;4.80;;;;;;;26.67;42.51;101196.03;4954933;28;20120;-65
2023/05/21 10:41:29;;;;;;;8.68;4.93;;;;;;;26.68;42.15;101184.75;4955719;28;20480;-65
2023/05/21 10:44:09;;;;;;;8.13;4.30;;;;;;;26.15;41.46;101183.50;4956156;28;20059;-66
2023/05/21 10:46:51;;;;;;;10.73;4.60;;;;;;;25.83;42.48;101178.63;4954010;29;20555;-66
2023/05/21 10:49:36;;;;;;;39.75;5.80;;;;;;;25.09;43.43;101189.69;4955310;29;20471;-65
2023/05/21 10:52:02;;;;;;;18.63;5.20;;;;;;;25.18;44.52;101176.41;4956065;28;20054;-65
2023/05/21 10:55:14;;;;;;;10.43;4.63;;;;;;;24.45;45.21;101177.97;4954713;28;20043;-66
2023/05/21 10:57:50;;;;;;;;;;;;;;;23.42;46.94;101184.81;4926842;28;20144;-67
2023/05/21 11:00:19;;;;;;;13.90;5.13;;;;;;;23.50;46.79;101187.19;4956021;28;19958;-65
2023/05/21 11:02:47;;;;;;;12.05;5.05;;;;;;;23.49;47.03;101191.00;4955647;28;20043;-65
2023/05/21 11:05:14;;;;;;;6.93;4.57;;;;;;;23.16;47.99;101180.59;4955797;28;20567;-65
2023/05/21 11:07:57;;;;;;;14.60;5.60;;;;;;;23.41;47.17;101181.25;4955440;28;20058;-65
2023/05/21 11:10:40;;;;;;;14.32;5.70;;;;;;;23.73;46.78;101179.03;4955518;28;20052;-65
2023/05/21 11:13:11;;;;;;;7.50;4.82;;;;;;;23.28;46.82;101178.72;4955499;28;20074;-65
2023/05/21 11:15:56;;;;;;;10.85;5.57;;;;;;;23.66;46.25;101183.78;4955504;28;20051;-66